Terminal Aerodrome Forecast
Issued by NWS

Home | Current Version | Previous Version | Text Only | Print | Product List | Glossary On
Versions: 1 2 3 4 5 6 7 8 9 10 11 12 13
000
FTUS46 KSEW 150500
TAFHQM
TAF
KHQM 150520Z 1506/1606 VRB03KT P6SM SKC
     FM160000 21008KT P6SM SCT100 BKN200
     FM160500 18010KT 5SM BR BKN005 BKN100=

USA.gov is the U.S. government's official web portal to all federal, state and local government web resources and services.